sensor_id;sensor_type;location;lat;lon;timestamp;P1;durP1;ratioP1;P2;durP2;ratioP2
54883;SDS011;40776;52.880;6.016;2022-08-16T00:00:37;24.40;;;19.75;;
54883;SDS011;40776;52.880;6.016;2022-08-16T00:03:03;22.88;;;15.82;;
54883;SDS011;40776;52.880;6.016;2022-08-16T00:05:30;22.05;;;17.88;;
54883;SDS011;40776;52.880;6.016;2022-08-16T00:07:57;22.95;;;17.35;;
54883;SDS011;40776;52.880;6.016;2022-08-16T00:10:23;20.42;;;18.25;;
54883;SDS011;40776;52.880;6.016;2022-08-16T00:12:50;20.70;;;18.27;;
54883;SDS011;40776;52.880;6.016;2022-08-16T00:15:38;23.98;;;19.63;;
54883;SDS011;40776;52.880;6.016;2022-08-16T00:18:03;19.00;;;17.05;;
54883;SDS011;40776;52.880;6.016;2022-08-16T00:20:30;20.50;;;18.17;;
54883;SDS011;40776;52.880;6.016;2022-08-16T00:22:56;21.77;;;17.63;;
54883;SDS011;40776;52.880;6.016;2022-08-16T00:25:23;19.45;;;17.30;;
54883;SDS011;40776;52.880;6.016;2022-08-16T00:27:49;23.73;;;18.83;;
54883;SDS011;40776;52.880;6.016;2022-08-16T00:30:16;24.40;;;19.15;;
54883;SDS011;40776;52.880;6.016;2022-08-16T00:32:43;20.58;;;17.50;;
54883;SDS011;40776;52.880;6.016;2022-08-16T00:35:11;24.77;;;16.33;;
54883;SDS011;40776;52.880;6.016;2022-08-16T00:37:37;21.45;;;17.17;;
54883;SDS011;40776;52.880;6.016;2022-08-16T00:40:04;24.83;;;18.77;;
54883;SDS011;40776;52.880;6.016;2022-08-16T00:42:32;23.75;;;18.13;;
54883;SDS011;40776;52.880;6.016;2022-08-16T00:45:07;22.85;;;18.88;;
54883;SDS011;40776;52.880;6.016;2022-08-16T00:47:34;21.85;;;18.42;;
54883;SDS011;40776;52.880;6.016;2022-08-16T00:50:00;20.52;;;17.25;;
54883;SDS011;40776;52.880;6.016;2022-08-16T00:52:26;19.13;;;16.95;;
54883;SDS011;40776;52.880;6.016;2022-08-16T00:54:52;21.88;;;18.20;;
54883;SDS011;40776;52.880;6.016;2022-08-16T00:57:18;19.58;;;15.77;;
54883;SDS011;40776;52.880;6.016;2022-08-16T00:59:44;22.95;;;18.02;;
54883;SDS011;40776;52.880;6.016;2022-08-16T01:02:10;26.17;;;18.05;;
54883;SDS011;40776;52.880;6.016;2022-08-16T01:04:37;20.30;;;17.33;;
54883;SDS011;40776;52.880;6.016;2022-08-16T01:07:04;22.75;;;17.67;;
54883;SDS011;40776;52.880;6.016;2022-08-16T01:09:31;19.40;;;17.38;;
54883;SDS011;40776;52.880;6.016;2022-08-16T01:11:57;19.35;;;17.25;;
54883;SDS011;40776;52.880;6.016;2022-08-16T01:14:29;19.90;;;17.10;;
54883;SDS011;40776;52.880;6.016;2022-08-16T01:16:59;20.52;;;17.10;;
54883;SDS011;40776;52.880;6.016;2022-08-16T01:19:30;22.08;;;16.67;;
54883;SDS011;40776;52.880;6.016;2022-08-16T01:22:01;21.42;;;18.17;;
54883;SDS011;40776;52.880;6.016;2022-08-16T01:27:08;23.20;;;18.30;;
54883;SDS011;40776;52.880;6.016;2022-08-16T01:32:21;21.67;;;17.67;;
54883;SDS011;40776;52.880;6.016;2022-08-16T01:34:47;20.23;;;17.90;;
54883;SDS011;40776;52.880;6.016;2022-08-16T01:37:13;19.52;;;16.17;;
54883;SDS011;40776;52.880;6.016;2022-08-16T01:39:40;20.17;;;16.77;;
54883;SDS011;40776;52.880;6.016;2022-08-16T01:42:08;24.13;;;17.50;;
54883;SDS011;40776;52.880;6.016;2022-08-16T01:44:35;22.67;;;19.05;;
54883;SDS011;40776;52.880;6.016;2022-08-16T01:47:02;22.13;;;18.63;;
54883;SDS011;40776;52.880;6.016;2022-08-16T01:49:46;24.63;;;19.60;;
54883;SDS011;40776;52.880;6.016;2022-08-16T01:52:13;25.20;;;20.70;;
54883;SDS011;40776;52.880;6.016;2022-08-16T01:54:40;22.55;;;17.67;;
54883;SDS011;40776;52.880;6.016;2022-08-16T01:57:08;25.00;;;19.80;;
54883;SDS011;40776;52.880;6.016;2022-08-16T01:59:35;24.02;;;17.77;;
54883;SDS011;40776;52.880;6.016;2022-08-16T02:02:01;22.10;;;19.60;;
54883;SDS011;40776;52.880;6.016;2022-08-16T02:04:28;19.33;;;17.23;;
54883;SDS011;40776;52.880;6.016;2022-08-16T02:06:54;22.40;;;17.95;;
54883;SDS011;40776;52.880;6.016;2022-08-16T02:09:21;19.42;;;16.85;;
54883;SDS011;40776;52.880;6.016;2022-08-16T02:11:49;20.08;;;17.27;;
54883;SDS011;40776;52.880;6.016;2022-08-16T02:14:16;19.15;;;17.15;;
54883;SDS011;40776;52.880;6.016;2022-08-16T02:16:42;23.92;;;18.00;;
54883;SDS011;40776;52.880;6.016;2022-08-16T02:19:09;20.10;;;18.00;;
54883;SDS011;40776;52.880;6.016;2022-08-16T02:21:36;23.33;;;16.92;;
54883;SDS011;40776;52.880;6.016;2022-08-16T02:24:02;20.05;;;17.95;;
54883;SDS011;40776;52.880;6.016;2022-08-16T02:26:28;18.65;;;16.65;;
54883;SDS011;40776;52.880;6.016;2022-08-16T02:28:54;19.98;;;17.38;;
54883;SDS011;40776;52.880;6.016;2022-08-16T02:31:21;21.80;;;17.75;;
54883;SDS011;40776;52.880;6.016;2022-08-16T02:33:47;20.98;;;17.98;;
54883;SDS011;40776;52.880;6.016;2022-08-16T02:36:13;21.02;;;17.00;;
54883;SDS011;40776;52.880;6.016;2022-08-16T02:38:40;22.50;;;18.95;;
54883;SDS011;40776;52.880;6.016;2022-08-16T02:41:07;20.10;;;18.00;;
54883;SDS011;40776;52.880;6.016;2022-08-16T02:43:34;18.95;;;16.95;;
54883;SDS011;40776;52.880;6.016;2022-08-16T02:46:01;20.67;;;18.45;;
54883;SDS011;40776;52.880;6.016;2022-08-16T02:48:27;21.10;;;18.08;;
54883;SDS011;40776;52.880;6.016;2022-08-16T02:50:55;20.60;;;18.33;;
54883;SDS011;40776;52.880;6.016;2022-08-16T02:53:22;23.80;;;19.35;;
54883;SDS011;40776;52.880;6.016;2022-08-16T02:55:48;22.40;;;18.52;;
54883;SDS011;40776;52.880;6.016;2022-08-16T02:58:14;24.27;;;19.45;;
54883;SDS011;40776;52.880;6.016;2022-08-16T03:00:40;20.80;;;17.70;;
54883;SDS011;40776;52.880;6.016;2022-08-16T03:03:06;25.02;;;18.38;;
54883;SDS011;40776;52.880;6.016;2022-08-16T03:05:32;24.58;;;18.20;;
54883;SDS011;40776;52.880;6.016;2022-08-16T03:07:58;23.63;;;18.50;;
54883;SDS011;40776;52.880;6.016;2022-08-16T03:10:26;22.70;;;17.58;;
54883;SDS011;40776;52.880;6.016;2022-08-16T03:12:52;19.67;;;17.00;;
54883;SDS011;40776;52.880;6.016;2022-08-16T03:15:18;23.30;;;19.65;;
54883;SDS011;40776;52.880;6.016;2022-08-16T03:17:45;27.13;;;20.05;;
54883;SDS011;40776;52.880;6.016;2022-08-16T03:20:11;23.00;;;18.92;;
54883;SDS011;40776;52.880;6.016;2022-08-16T03:22:39;25.92;;;19.38;;
54883;SDS011;40776;52.880;6.016;2022-08-16T03:25:07;23.13;;;17.90;;
54883;SDS011;40776;52.880;6.016;2022-08-16T03:27:34;19.23;;;17.20;;
54883;SDS011;40776;52.880;6.016;2022-08-16T03:30:17;19.95;;;17.40;;
54883;SDS011;40776;52.880;6.016;2022-08-16T03:32:46;22.30;;;17.77;;
54883;SDS011;40776;52.880;6.016;2022-08-16T03:37:40;22.80;;;18.95;;
54883;SDS011;40776;52.880;6.016;2022-08-16T03:40:08;22.40;;;18.83;;
54883;SDS011;40776;52.880;6.016;2022-08-16T03:42:35;22.88;;;18.60;;
54883;SDS011;40776;52.880;6.016;2022-08-16T03:45:03;24.55;;;18.45;;
54883;SDS011;40776;52.880;6.016;2022-08-16T03:47:30;24.17;;;19.45;;
54883;SDS011;40776;52.880;6.016;2022-08-16T03:49:56;23.10;;;19.60;;
54883;SDS011;40776;52.880;6.016;2022-08-16T03:52:22;24.83;;;19.80;;
54883;SDS011;40776;52.880;6.016;2022-08-16T03:54:49;23.38;;;19.52;;
54883;SDS011;40776;52.880;6.016;2022-08-16T03:57:15;24.20;;;20.02;;
54883;SDS011;40776;52.880;6.016;2022-08-16T03:59:42;24.25;;;19.08;;
54883;SDS011;40776;52.880;6.016;2022-08-16T04:02:08;22.65;;;19.90;;
54883;SDS011;40776;52.880;6.016;2022-08-16T04:04:35;25.08;;;19.10;;
54883;SDS011;40776;52.880;6.016;2022-08-16T04:07:02;24.30;;;20.35;;
54883;SDS011;40776;52.880;6.016;2022-08-16T04:09:29;29.27;;;21.10;;
54883;SDS011;40776;52.880;6.016;2022-08-16T04:11:55;22.80;;;19.20;;
54883;SDS011;40776;52.880;6.016;2022-08-16T04:14:21;24.67;;;19.90;;
54883;SDS011;40776;52.880;6.016;2022-08-16T04:16:48;24.55;;;19.17;;
54883;SDS011;40776;52.880;6.016;2022-08-16T04:19:14;23.98;;;20.02;;
54883;SDS011;40776;52.880;6.016;2022-08-16T04:21:40;27.05;;;20.65;;
54883;SDS011;40776;52.880;6.016;2022-08-16T04:24:06;22.70;;;19.95;;
54883;SDS011;40776;52.880;6.016;2022-08-16T04:26:32;25.27;;;20.67;;
54883;SDS011;40776;52.880;6.016;2022-08-16T04:28:59;26.98;;;21.13;;
54883;SDS011;40776;52.880;6.016;2022-08-16T04:31:25;25.80;;;19.70;;
54883;SDS011;40776;52.880;6.016;2022-08-16T04:33:52;22.25;;;19.52;;
54883;SDS011;40776;52.880;6.016;2022-08-16T04:36:23;23.48;;;20.85;;
54883;SDS011;40776;52.880;6.016;2022-08-16T04:38:49;26.58;;;20.23;;
54883;SDS011;40776;52.880;6.016;2022-08-16T04:41:16;26.48;;;21.08;;
54883;SDS011;40776;52.880;6.016;2022-08-16T04:43:44;24.67;;;20.27;;
54883;SDS011;40776;52.880;6.016;2022-08-16T04:46:10;26.20;;;20.95;;
54883;SDS011;40776;52.880;6.016;2022-08-16T04:48:40;27.25;;;22.10;;
54883;SDS011;40776;52.880;6.016;2022-08-16T04:51:07;29.40;;;20.65;;
54883;SDS011;40776;52.880;6.016;2022-08-16T04:53:33;28.30;;;22.58;;
54883;SDS011;40776;52.880;6.016;2022-08-16T04:56:02;24.52;;;20.20;;
54883;SDS011;40776;52.880;6.016;2022-08-16T04:58:28;27.10;;;20.95;;
54883;SDS011;40776;52.880;6.016;2022-08-16T05:00:56;26.48;;;20.95;;
54883;SDS011;40776;52.880;6.016;2022-08-16T05:03:22;27.42;;;21.65;;
54883;SDS011;40776;52.880;6.016;2022-08-16T05:05:49;29.95;;;21.45;;
54883;SDS011;40776;52.880;6.016;2022-08-16T05:08:15;26.15;;;21.52;;
54883;SDS011;40776;52.880;6.016;2022-08-16T05:10:41;23.65;;;20.48;;
54883;SDS011;40776;52.880;6.016;2022-08-16T05:13:07;27.33;;;21.20;;
54883;SDS011;40776;52.880;6.016;2022-08-16T05:15:36;26.13;;;20.15;;
54883;SDS011;40776;52.880;6.016;2022-08-16T05:18:02;28.23;;;21.02;;
54883;SDS011;40776;52.880;6.016;2022-08-16T05:20:28;27.33;;;20.63;;
54883;SDS011;40776;52.880;6.016;2022-08-16T05:22:54;25.25;;;20.52;;
54883;SDS011;40776;52.880;6.016;2022-08-16T05:25:20;27.90;;;20.83;;
54883;SDS011;40776;52.880;6.016;2022-08-16T05:27:47;28.52;;;21.08;;
54883;SDS011;40776;52.880;6.016;2022-08-16T05:30:14;25.33;;;20.27;;
54883;SDS011;40776;52.880;6.016;2022-08-16T05:32:40;29.00;;;20.20;;
54883;SDS011;40776;52.880;6.016;2022-08-16T05:35:09;22.73;;;19.35;;
54883;SDS011;40776;52.880;6.016;2022-08-16T05:41:16;24.27;;;20.65;;
54883;SDS011;40776;52.880;6.016;2022-08-16T05:43:42;24.35;;;20.70;;
54883;SDS011;40776;52.880;6.016;2022-08-16T05:46:09;23.08;;;20.52;;
54883;SDS011;40776;52.880;6.016;2022-08-16T05:48:35;26.25;;;20.02;;
54883;SDS011;40776;52.880;6.016;2022-08-16T05:51:01;31.02;;;21.02;;
54883;SDS011;40776;52.880;6.016;2022-08-16T05:53:27;25.88;;;21.95;;
54883;SDS011;40776;52.880;6.016;2022-08-16T05:55:53;26.00;;;20.70;;
54883;SDS011;40776;52.880;6.016;2022-08-16T05:58:20;23.95;;;19.60;;
54883;SDS011;40776;52.880;6.016;2022-08-16T06:00:46;27.63;;;21.30;;
54883;SDS011;40776;52.880;6.016;2022-08-16T06:03:12;27.80;;;20.52;;
54883;SDS011;40776;52.880;6.016;2022-08-16T06:05:38;29.83;;;21.30;;
54883;SDS011;40776;52.880;6.016;2022-08-16T06:08:04;26.63;;;22.13;;
54883;SDS011;40776;52.880;6.016;2022-08-16T06:10:30;31.25;;;20.05;;
54883;SDS011;40776;52.880;6.016;2022-08-16T06:12:56;22.83;;;20.02;;
54883;SDS011;40776;52.880;6.016;2022-08-16T06:15:22;25.45;;;19.63;;
54883;SDS011;40776;52.880;6.016;2022-08-16T06:17:48;24.77;;;19.77;;
54883;SDS011;40776;52.880;6.016;2022-08-16T06:20:19;24.92;;;20.08;;
54883;SDS011;40776;52.880;6.016;2022-08-16T06:22:45;23.48;;;20.60;;
54883;SDS011;40776;52.880;6.016;2022-08-16T06:25:12;25.33;;;19.05;;
54883;SDS011;40776;52.880;6.016;2022-08-16T06:27:40;25.00;;;20.23;;
54883;SDS011;40776;52.880;6.016;2022-08-16T06:30:07;25.50;;;19.88;;
54883;SDS011;40776;52.880;6.016;2022-08-16T06:32:33;24.17;;;21.60;;
54883;SDS011;40776;52.880;6.016;2022-08-16T06:34:59;23.75;;;18.58;;
54883;SDS011;40776;52.880;6.016;2022-08-16T06:37:26;27.40;;;19.83;;
54883;SDS011;40776;52.880;6.016;2022-08-16T06:39:54;24.95;;;21.00;;
54883;SDS011;40776;52.880;6.016;2022-08-16T06:42:20;30.67;;;21.83;;
54883;SDS011;40776;52.880;6.016;2022-08-16T06:44:46;23.45;;;20.48;;
54883;SDS011;40776;52.880;6.016;2022-08-16T06:47:13;31.77;;;21.15;;
54883;SDS011;40776;52.880;6.016;2022-08-16T06:49:39;22.75;;;19.77;;
54883;SDS011;40776;52.880;6.016;2022-08-16T06:52:05;24.77;;;19.48;;
54883;SDS011;40776;52.880;6.016;2022-08-16T06:54:33;22.55;;;17.65;;
54883;SDS011;40776;52.880;6.016;2022-08-16T06:56:59;23.45;;;18.88;;
54883;SDS011;40776;52.880;6.016;2022-08-16T06:59:25;25.48;;;19.75;;
54883;SDS011;40776;52.880;6.016;2022-08-16T07:01:51;24.73;;;19.35;;
54883;SDS011;40776;52.880;6.016;2022-08-16T07:04:18;21.50;;;18.33;;
54883;SDS011;40776;52.880;6.016;2022-08-16T07:06:44;24.52;;;19.13;;
54883;SDS011;40776;52.880;6.016;2022-08-16T07:09:11;27.15;;;17.52;;
54883;SDS011;40776;52.880;6.016;2022-08-16T07:11:40;22.73;;;18.95;;
54883;SDS011;40776;52.880;6.016;2022-08-16T07:14:06;23.08;;;18.60;;
54883;SDS011;40776;52.880;6.016;2022-08-16T07:16:32;23.02;;;18.85;;
54883;SDS011;40776;52.880;6.016;2022-08-16T07:18:58;26.05;;;19.30;;
54883;SDS011;40776;52.880;6.016;2022-08-16T07:21:24;23.30;;;17.95;;
54883;SDS011;40776;52.880;6.016;2022-08-16T07:23:50;22.20;;;18.83;;
54883;SDS011;40776;52.880;6.016;2022-08-16T07:26:20;24.25;;;17.45;;
54883;SDS011;40776;52.880;6.016;2022-08-16T07:28:48;24.55;;;20.35;;
54883;SDS011;40776;52.880;6.016;2022-08-16T07:31:16;25.90;;;20.88;;
54883;SDS011;40776;52.880;6.016;2022-08-16T07:33:43;21.38;;;18.27;;
54883;SDS011;40776;52.880;6.016;2022-08-16T07:36:12;22.02;;;17.92;;
54883;SDS011;40776;52.880;6.016;2022-08-16T07:38:39;22.77;;;19.05;;
54883;SDS011;40776;52.880;6.016;2022-08-16T07:41:06;24.52;;;19.17;;
54883;SDS011;40776;52.880;6.016;2022-08-16T07:43:34;23.45;;;19.27;;
54883;SDS011;40776;52.880;6.016;2022-08-16T07:46:00;22.92;;;19.65;;
54883;SDS011;40776;52.880;6.016;2022-08-16T07:48:26;25.65;;;19.63;;
54883;SDS011;40776;52.880;6.016;2022-08-16T07:50:51;25.45;;;19.45;;
54883;SDS011;40776;52.880;6.016;2022-08-16T07:53:18;21.38;;;18.17;;
54883;SDS011;40776;52.880;6.016;2022-08-16T07:55:44;20.88;;;18.15;;
54883;SDS011;40776;52.880;6.016;2022-08-16T07:58:10;25.35;;;19.90;;
54883;SDS011;40776;52.880;6.016;2022-08-16T08:00:36;22.10;;;18.38;;
54883;SDS011;40776;52.880;6.016;2022-08-16T08:03:02;21.08;;;17.58;;
54883;SDS011;40776;52.880;6.016;2022-08-16T08:05:29;20.85;;;18.63;;
54883;SDS011;40776;52.880;6.016;2022-08-16T08:07:55;28.27;;;20.08;;
54883;SDS011;40776;52.880;6.016;2022-08-16T08:10:21;24.52;;;19.70;;
54883;SDS011;40776;52.880;6.016;2022-08-16T08:12:49;23.27;;;20.20;;
54883;SDS011;40776;52.880;6.016;2022-08-16T08:15:16;25.27;;;20.35;;
54883;SDS011;40776;52.880;6.016;2022-08-16T08:17:42;24.48;;;20.77;;
54883;SDS011;40776;52.880;6.016;2022-08-16T08:20:09;20.20;;;17.67;;
54883;SDS011;40776;52.880;6.016;2022-08-16T08:22:37;22.77;;;19.63;;
54883;SDS011;40776;52.880;6.016;2022-08-16T08:25:03;21.67;;;19.27;;
54883;SDS011;40776;52.880;6.016;2022-08-16T08:27:30;24.00;;;18.13;;
54883;SDS011;40776;52.880;6.016;2022-08-16T08:29:55;20.33;;;17.52;;
54883;SDS011;40776;52.880;6.016;2022-08-16T08:32:22;24.15;;;18.70;;
54883;SDS011;40776;52.880;6.016;2022-08-16T08:34:51;25.97;;;18.77;;
54883;SDS011;40776;52.880;6.016;2022-08-16T08:37:17;23.10;;;18.30;;
54883;SDS011;40776;52.880;6.016;2022-08-16T08:39:43;23.10;;;19.23;;
54883;SDS011;40776;52.880;6.016;2022-08-16T08:42:09;23.20;;;18.10;;
54883;SDS011;40776;52.880;6.016;2022-08-16T08:44:35;25.38;;;19.23;;
54883;SDS011;40776;52.880;6.016;2022-08-16T08:47:01;21.73;;;18.38;;
54883;SDS011;40776;52.880;6.016;2022-08-16T08:49:30;23.13;;;20.30;;
54883;SDS011;40776;52.880;6.016;2022-08-16T08:51:56;27.38;;;17.85;;
54883;SDS011;40776;52.880;6.016;2022-08-16T08:54:23;23.48;;;18.17;;
54883;SDS011;40776;52.880;6.016;2022-08-16T08:56:50;23.73;;;17.75;;
54883;SDS011;40776;52.880;6.016;2022-08-16T08:59:19;18.58;;;14.30;;
54883;SDS011;40776;52.880;6.016;2022-08-16T09:01:45;18.42;;;15.32;;
54883;SDS011;40776;52.880;6.016;2022-08-16T09:04:17;25.20;;;16.48;;
54883;SDS011;40776;52.880;6.016;2022-08-16T09:06:42;15.90;;;13.27;;
54883;SDS011;40776;52.880;6.016;2022-08-16T09:09:08;16.05;;;12.57;;
54883;SDS011;40776;52.880;6.016;2022-08-16T09:11:34;19.13;;;15.23;;
54883;SDS011;40776;52.880;6.016;2022-08-16T09:14:01;28.98;;;17.50;;
54883;SDS011;40776;52.880;6.016;2022-08-16T09:16:27;20.23;;;15.75;;
54883;SDS011;40776;52.880;6.016;2022-08-16T09:18:53;19.63;;;15.23;;
54883;SDS011;40776;52.880;6.016;2022-08-16T09:21:20;21.08;;;15.98;;
54883;SDS011;40776;52.880;6.016;2022-08-16T09:23:46;17.55;;;13.85;;
54883;SDS011;40776;52.880;6.016;2022-08-16T09:26:12;18.15;;;14.98;;
54883;SDS011;40776;52.880;6.016;2022-08-16T09:28:40;18.38;;;15.48;;
54883;SDS011;40776;52.880;6.016;2022-08-16T09:31:07;16.75;;;14.57;;
54883;SDS011;40776;52.880;6.016;2022-08-16T09:33:33;18.63;;;15.52;;
54883;SDS011;40776;52.880;6.016;2022-08-16T09:35:59;17.50;;;13.60;;
54883;SDS011;40776;52.880;6.016;2022-08-16T09:38:25;16.60;;;13.68;;
54883;SDS011;40776;52.880;6.016;2022-08-16T09:40:51;16.45;;;14.40;;
54883;SDS011;40776;52.880;6.016;2022-08-16T09:43:18;18.85;;;11.85;;
54883;SDS011;40776;52.880;6.016;2022-08-16T09:45:45;16.83;;;11.82;;
54883;SDS011;40776;52.880;6.016;2022-08-16T09:48:12;16.08;;;11.68;;
54883;SDS011;40776;52.880;6.016;2022-08-16T09:50:39;16.00;;;11.35;;
54883;SDS011;40776;52.880;6.016;2022-08-16T09:53:08;15.40;;;10.95;;
54883;SDS011;40776;52.880;6.016;2022-08-16T09:55:37;12.13;;;9.25;;
54883;SDS011;40776;52.880;6.016;2022-08-16T09:58:03;11.73;;;9.98;;
54883;SDS011;40776;52.880;6.016;2022-08-16T10:00:29;16.38;;;11.63;;
54883;SDS011;40776;52.880;6.016;2022-08-16T10:02:55;11.63;;;8.95;;
54883;SDS011;40776;52.880;6.016;2022-08-16T10:05:22;11.80;;;9.25;;
54883;SDS011;40776;52.880;6.016;2022-08-16T10:07:48;11.95;;;9.77;;
54883;SDS011;40776;52.880;6.016;2022-08-16T10:10:19;10.50;;;7.50;;
54883;SDS011;40776;52.880;6.016;2022-08-16T10:12:46;14.07;;;9.98;;
54883;SDS011;40776;52.880;6.016;2022-08-16T10:15:31;11.32;;;8.43;;
54883;SDS011;40776;52.880;6.016;2022-08-16T10:17:58;15.60;;;10.57;;
54883;SDS011;40776;52.880;6.016;2022-08-16T10:20:25;14.90;;;10.85;;
54883;SDS011;40776;52.880;6.016;2022-08-16T10:22:52;16.30;;;9.70;;
54883;SDS011;40776;52.880;6.016;2022-08-16T10:25:18;11.77;;;8.52;;
54883;SDS011;40776;52.880;6.016;2022-08-16T10:27:45;17.67;;;8.73;;
54883;SDS011;40776;52.880;6.016;2022-08-16T10:30:12;13.82;;;10.18;;
54883;SDS011;40776;52.880;6.016;2022-08-16T10:32:39;17.63;;;9.90;;
54883;SDS011;40776;52.880;6.016;2022-08-16T10:35:05;14.25;;;9.70;;
54883;SDS011;40776;52.880;6.016;2022-08-16T10:37:31;12.43;;;9.02;;
54883;SDS011;40776;52.880;6.016;2022-08-16T10:39:57;13.63;;;8.13;;
54883;SDS011;40776;52.880;6.016;2022-08-16T10:42:23;12.75;;;9.10;;
54883;SDS011;40776;52.880;6.016;2022-08-16T10:44:49;11.32;;;7.80;;
54883;SDS011;40776;52.880;6.016;2022-08-16T10:47:15;6.93;;;5.78;;
54883;SDS011;40776;52.880;6.016;2022-08-16T10:49:40;8.98;;;4.57;;
54883;SDS011;40776;52.880;6.016;2022-08-16T10:52:06;6.10;;;5.35;;
54883;SDS011;40776;52.880;6.016;2022-08-16T10:54:32;9.82;;;5.68;;
54883;SDS011;40776;52.880;6.016;2022-08-16T10:56:59;10.00;;;6.15;;
54883;SDS011;40776;52.880;6.016;2022-08-16T10:59:27;9.32;;;5.57;;
54883;SDS011;40776;52.880;6.016;2022-08-16T11:01:55;6.95;;;5.03;;
54883;SDS011;40776;52.880;6.016;2022-08-16T11:04:22;9.02;;;5.28;;
54883;SDS011;40776;52.880;6.016;2022-08-16T11:06:47;7.30;;;5.20;;
54883;SDS011;40776;52.880;6.016;2022-08-16T11:09:13;7.28;;;5.05;;
54883;SDS011;40776;52.880;6.016;2022-08-16T11:11:39;7.45;;;4.75;;
54883;SDS011;40776;52.880;6.016;2022-08-16T11:14:04;9.52;;;5.35;;
54883;SDS011;40776;52.880;6.016;2022-08-16T11:16:31;9.43;;;4.82;;
54883;SDS011;40776;52.880;6.016;2022-08-16T11:18:57;7.03;;;4.25;;
54883;SDS011;40776;52.880;6.016;2022-08-16T11:21:23;7.68;;;4.47;;
54883;SDS011;40776;52.880;6.016;2022-08-16T11:23:50;5.38;;;4.40;;
54883;SDS011;40776;52.880;6.016;2022-08-16T11:26:17;7.95;;;3.75;;
54883;SDS011;40776;52.880;6.016;2022-08-16T11:28:43;6.50;;;4.32;;
54883;SDS011;40776;52.880;6.016;2022-08-16T11:31:09;7.68;;;4.88;;
54883;SDS011;40776;52.880;6.016;2022-08-16T11:33:34;7.88;;;5.07;;
54883;SDS011;40776;52.880;6.016;2022-08-16T11:36:00;6.93;;;4.95;;
54883;SDS011;40776;52.880;6.016;2022-08-16T11:38:27;8.73;;;5.88;;
54883;SDS011;40776;52.880;6.016;2022-08-16T11:40:53;8.77;;;6.38;;
54883;SDS011;40776;52.880;6.016;2022-08-16T11:43:26;9.98;;;5.82;;
54883;SDS011;40776;52.880;6.016;2022-08-16T11:45:55;8.38;;;4.82;;
54883;SDS011;40776;52.880;6.016;2022-08-16T11:48:22;8.32;;;5.20;;
54883;SDS011;40776;52.880;6.016;2022-08-16T11:50:49;6.47;;;5.78;;
54883;SDS011;40776;52.880;6.016;2022-08-16T11:53:15;7.63;;;6.10;;
54883;SDS011;40776;52.880;6.016;2022-08-16T11:55:41;10.68;;;6.10;;
54883;SDS011;40776;52.880;6.016;2022-08-16T11:58:08;6.35;;;5.47;;
54883;SDS011;40776;52.880;6.016;2022-08-16T12:00:35;9.80;;;5.93;;
54883;SDS011;40776;52.880;6.016;2022-08-16T12:03:02;6.22;;;5.35;;
54883;SDS011;40776;52.880;6.016;2022-08-16T12:05:28;7.82;;;6.50;;
54883;SDS011;40776;52.880;6.016;2022-08-16T12:07:55;10.18;;;6.05;;
54883;SDS011;40776;52.880;6.016;2022-08-16T12:10:22;9.95;;;5.10;;
54883;SDS011;40776;52.880;6.016;2022-08-16T12:12:48;9.57;;;5.90;;
54883;SDS011;40776;52.880;6.016;2022-08-16T12:15:16;8.35;;;6.50;;
54883;SDS011;40776;52.880;6.016;2022-08-16T12:17:42;10.00;;;6.18;;
54883;SDS011;40776;52.880;6.016;2022-08-16T12:20:09;9.93;;;8.30;;
54883;SDS011;40776;52.880;6.016;2022-08-16T12:22:39;11.82;;;9.32;;
54883;SDS011;40776;52.880;6.016;2022-08-16T12:25:07;12.63;;;7.70;;
54883;SDS011;40776;52.880;6.016;2022-08-16T12:27:35;13.02;;;8.20;;
54883;SDS011;40776;52.880;6.016;2022-08-16T12:30:02;12.38;;;8.80;;
54883;SDS011;40776;52.880;6.016;2022-08-16T12:32:29;11.35;;;8.48;;
54883;SDS011;40776;52.880;6.016;2022-08-16T12:34:54;20.98;;;12.68;;
54883;SDS011;40776;52.880;6.016;2022-08-16T12:37:20;20.00;;;15.90;;
54883;SDS011;40776;52.880;6.016;2022-08-16T12:39:47;22.67;;;15.57;;
54883;SDS011;40776;52.880;6.016;2022-08-16T12:42:13;19.00;;;14.07;;
54883;SDS011;40776;52.880;6.016;2022-08-16T12:44:39;20.15;;;13.45;;
54883;SDS011;40776;52.880;6.016;2022-08-16T12:47:07;17.73;;;14.07;;
54883;SDS011;40776;52.880;6.016;2022-08-16T12:49:52;17.60;;;14.93;;
54883;SDS011;40776;52.880;6.016;2022-08-16T12:52:18;17.80;;;14.48;;
54883;SDS011;40776;52.880;6.016;2022-08-16T12:54:44;15.85;;;11.32;;
54883;SDS011;40776;52.880;6.016;2022-08-16T12:57:10;14.07;;;11.60;;
54883;SDS011;40776;52.880;6.016;2022-08-16T12:59:36;15.15;;;11.43;;
54883;SDS011;40776;52.880;6.016;2022-08-16T13:02:02;19.23;;;14.18;;
54883;SDS011;40776;52.880;6.016;2022-08-16T13:04:29;17.42;;;10.82;;
54883;SDS011;40776;52.880;6.016;2022-08-16T13:06:57;20.02;;;11.07;;
54883;SDS011;40776;52.880;6.016;2022-08-16T13:09:24;13.95;;;9.93;;
54883;SDS011;40776;52.880;6.016;2022-08-16T13:11:53;18.65;;;11.27;;
54883;SDS011;40776;52.880;6.016;2022-08-16T13:14:31;19.58;;;12.30;;
54883;SDS011;40776;52.880;6.016;2022-08-16T13:17:06;13.20;;;10.60;;
54883;SDS011;40776;52.880;6.016;2022-08-16T13:19:36;19.75;;;12.52;;
54883;SDS011;40776;52.880;6.016;2022-08-16T13:22:02;16.40;;;12.75;;
54883;SDS011;40776;52.880;6.016;2022-08-16T13:24:28;13.10;;;11.15;;
54883;SDS011;40776;52.880;6.016;2022-08-16T13:26:53;18.77;;;13.43;;
54883;SDS011;40776;52.880;6.016;2022-08-16T13:29:19;19.48;;;13.65;;
54883;SDS011;40776;52.880;6.016;2022-08-16T13:31:45;15.00;;;11.77;;
54883;SDS011;40776;52.880;6.016;2022-08-16T13:34:10;17.85;;;12.32;;
54883;SDS011;40776;52.880;6.016;2022-08-16T13:36:36;17.80;;;14.18;;
54883;SDS011;40776;52.880;6.016;2022-08-16T13:39:02;21.00;;;13.40;;
54883;SDS011;40776;52.880;6.016;2022-08-16T13:41:28;15.50;;;12.05;;
54883;SDS011;40776;52.880;6.016;2022-08-16T13:43:56;17.50;;;13.18;;
54883;SDS011;40776;52.880;6.016;2022-08-16T13:46:22;18.88;;;14.63;;
54883;SDS011;40776;52.880;6.016;2022-08-16T13:48:47;17.48;;;12.32;;
54883;SDS011;40776;52.880;6.016;2022-08-16T13:51:14;15.90;;;12.15;;
54883;SDS011;40776;52.880;6.016;2022-08-16T13:53:41;15.43;;;12.32;;
54883;SDS011;40776;52.880;6.016;2022-08-16T13:56:06;13.77;;;10.50;;
54883;SDS011;40776;52.880;6.016;2022-08-16T13:58:32;14.65;;;11.55;;
54883;SDS011;40776;52.880;6.016;2022-08-16T14:00:58;16.50;;;10.35;;
54883;SDS011;40776;52.880;6.016;2022-08-16T14:03:24;13.82;;;10.52;;
54883;SDS011;40776;52.880;6.016;2022-08-16T14:05:51;11.95;;;9.75;;
54883;SDS011;40776;52.880;6.016;2022-08-16T14:08:17;12.95;;;8.73;;
54883;SDS011;40776;52.880;6.016;2022-08-16T14:10:43;14.95;;;8.18;;
54883;SDS011;40776;52.880;6.016;2022-08-16T14:13:08;15.02;;;10.20;;
54883;SDS011;40776;52.880;6.016;2022-08-16T14:15:34;15.25;;;9.75;;
54883;SDS011;40776;52.880;6.016;2022-08-16T14:18:00;20.42;;;11.00;;
54883;SDS011;40776;52.880;6.016;2022-08-16T14:20:26;16.52;;;11.50;;
54883;SDS011;40776;52.880;6.016;2022-08-16T14:22:52;11.85;;;9.60;;
54883;SDS011;40776;52.880;6.016;2022-08-16T14:25:19;14.77;;;10.38;;
54883;SDS011;40776;52.880;6.016;2022-08-16T14:27:46;13.05;;;9.85;;
54883;SDS011;40776;52.880;6.016;2022-08-16T14:30:14;15.63;;;9.30;;
54883;SDS011;40776;52.880;6.016;2022-08-16T14:32:41;18.67;;;10.60;;
54883;SDS011;40776;52.880;6.016;2022-08-16T14:35:09;14.25;;;10.05;;